Time;durP1;ratioP1;P1;durP2;ratioP2;P2;SDS_P1;SDS_P2;PMS_P1;PMS_P2;Temp;Humidity;BMP_temperature;BMP_pressure;BME280_temperature;BME280_humidity;BME280_pressure;Samples;Min_cycle;Max_cycle;Signal;HPM_P1;HPM_P2
2022/04/23 00:02:03;;;;;;;;;;;;;;;13.86;48.93;99347.09;4994159;28;7184;-75
2022/04/23 00:04:30;;;;;;;;;;;;;;;13.81;49.11;99340.09;4958389;28;8321;-75
2022/04/23 00:06:58;;;;;;;;;;;;;;;13.77;48.59;99346.91;4981487;28;6800;-75
2022/04/23 00:09:24;;;;;;;;;;;;;;;13.74;49.11;99347.72;4964950;28;7085;-75
2022/04/23 00:11:49;;;;;;;;;;;;;;;13.70;49.33;99340.75;4968676;28;7824;-75
2022/04/23 00:14:15;;;;;;;;;;;;;;;13.68;49.69;99339.88;4979624;28;7195;-75
2022/04/23 00:16:41;;;;;;;;;;;;;;;13.68;49.64;99337.31;4980151;28;6816;-75
2022/04/23 00:19:06;;;;;;;;;;;;;;;13.68;49.13;99337.31;5000247;28;7061;-75
2022/04/23 00:21:32;;;;;;;;;;;;;;;13.68;49.86;99333.88;4983595;28;6788;-75
2022/04/23 00:23:58;;;;;;;;;;;;;;;13.68;50.21;99328.72;4999496;28;7863;-75
2022/04/23 00:26:23;;;;;;;;;;;;;;;13.69;49.76;99333.88;5000764;28;6983;-75
2022/04/23 00:28:49;;;;;;;;;;;;;;;13.69;49.62;99333.88;4997850;28;6849;-75
2022/04/23 00:31:15;;;;;;;;;;;;;;;13.70;49.52;99330.47;4999468;28;7306;-75
2022/04/23 00:33:41;;;;;;;;;;;;;;;13.70;50.00;99332.19;4997119;28;6799;-75
2022/04/23 00:36:10;;;;;;;;;;;;;;;13.70;49.62;99334.75;4985128;28;6882;-75
2022/04/23 00:38:39;;;;;;;;;;;;;;;13.70;49.76;99335.63;4983383;28;6811;-75
2022/04/23 00:41:05;;;;;;;;;;;;;;;13.69;49.64;99327.88;5000393;28;7133;-75
2022/04/23 00:43:36;;;;;;;;;;;;;;;13.68;49.61;99329.56;4987603;28;7920;-75
2022/04/23 00:46:03;;;;;;;;;;;;;;;13.68;49.92;99334.72;4984904;28;6816;-75
2022/04/23 00:48:30;;;;;;;;;;;;;;;13.68;49.81;99329.56;4982716;28;6864;-74
2022/04/23 00:51:01;;;;;;;;;;;;;;;13.68;50.08;99324.44;4986969;28;6819;-74
2022/04/23 00:53:28;;;;;;;;;;;;;;;13.70;49.69;99327.91;4969683;28;6864;-74
2022/04/23 00:55:54;;;;;;;;;;;;;;;13.71;50.97;99321.94;4987704;28;7609;-74
2022/04/23 00:58:20;;;;;;;;;;;;;;;13.72;50.53;99322.78;4985740;28;6892;-74
2022/04/23 01:00:47;;;;;;;;;;;;;;;13.72;49.63;99328.81;4985690;28;7853;-74
2022/04/23 01:03:14;;;;;;;;;;;;;;;13.74;50.03;99321.97;4987704;28;7875;-74
2022/04/23 01:05:47;;;;;;;;;;;;;;;13.74;50.47;99329.69;4984154;28;6890;-74
2022/04/23 01:08:15;;;;;;;;;;;;;;;13.73;50.10;99324.50;4986667;28;6820;-74
2022/04/23 01:10:43;;;;;;;;;;;;;;;13.71;50.38;99323.63;4985127;28;6971;-74
2022/04/23 01:13:10;;;;;;;;;;;;;;;13.70;49.83;99317.59;4989482;28;6803;-74
2022/04/23 01:15:36;;;;;;;;;;;;;;;13.69;49.96;99318.44;4983711;28;6824;-74
2022/04/23 01:18:05;;;;;;;;;;;;;;;13.68;50.37;99323.56;4984250;28;6844;-74
2022/04/23 01:20:34;;;;;;;;;;;;;;;13.68;50.94;99321.84;4957168;28;7233;-74
2022/04/23 01:23:00;;;;;;;;;;;;;;;13.67;50.67;99322.69;4969810;28;7006;-74
2022/04/23 01:25:26;;;;;;;;;;;;;;;13.68;50.17;99314.13;4985604;28;6800;-74
2022/04/23 01:27:54;;;;;;;;;;;;;;;13.70;49.85;99321.91;4986647;28;7164;-74
2022/04/23 01:30:19;;;;;;;;;;;;;;;13.69;49.78;99326.16;4986898;28;6978;-74
2022/04/23 01:32:45;;;;;;;;;;;;;;;13.69;50.46;99323.59;4986364;28;7015;-74
2022/04/23 01:35:11;;;;;;;;;;;;;;;13.69;50.40;99321.00;4983209;28;6800;-74
2022/04/23 01:37:36;;;;;;;;;;;;;;;13.69;50.26;99326.16;4986993;28;6820;-74
2022/04/23 01:40:03;;;;;;;;;;;;;;;13.69;49.99;99320.16;4983903;28;6828;-74
2022/04/23 01:42:28;;;;;;;;;;;;;;;13.68;50.02;99315.84;4985505;28;6788;-74
2022/04/23 01:44:54;;;;;;;;;;;;;;;13.66;49.99;99315.81;5000322;28;6827;-74
2022/04/23 01:47:20;;;;;;;;;;;;;;;13.66;49.76;99315.81;4980819;28;6902;-74
2022/04/23 01:49:46;;;;;;;;;;;;;;;13.67;50.53;99317.53;4981602;28;6804;-74
2022/04/23 01:52:13;;;;;;;;;;;;;;;13.67;50.49;99319.28;4966416;28;6981;-74
2022/04/23 01:54:39;;;;;;;;;;;;;;;13.66;50.57;99323.53;4979445;28;6800;-74
2022/04/23 01:57:06;;;;;;;;;;;;;;;13.66;49.90;99318.38;4963152;28;6788;-74
2022/04/23 01:59:32;;;;;;;;;;;;;;;13.66;50.51;99317.50;4986166;28;6814;-74
2022/04/23 02:01:59;;;;;;;;;;;;;;;13.67;49.73;99319.28;4982487;28;7318;-74
2022/04/23 02:04:25;;;;;;;;;;;;;;;13.66;50.18;99325.22;4985581;28;6812;-74
2022/04/23 02:06:51;;;;;;;;;;;;;;;13.66;49.92;99327.81;4985694;28;6963;-74
2022/04/23 02:09:17;;;;;;;;;;;;;;;13.67;50.57;99327.84;5002468;28;6876;-74
2022/04/23 02:11:44;;;;;;;;;;;;;;;13.67;50.51;99322.69;4982653;28;6892;-74
2022/04/23 02:14:09;;;;;;;;;;;;;;;13.67;50.05;99327.84;4980330;28;8243;-74
2022/04/23 02:16:35;;;;;;;;;;;;;;;13.69;50.32;99323.59;4998684;28;6815;-74
2022/04/23 02:19:03;;;;;;;;;;;;;;;13.69;50.44;99318.44;4985270;28;6892;-74
2022/04/23 02:21:30;;;;;;;;;;;;;;;13.70;50.53;99315.03;4984997;28;6828;-74
2022/04/23 02:23:56;;;;;;;;;;;;;;;13.72;50.25;99323.66;4983476;28;7153;-74
2022/04/23 02:26:23;;;;;;;;;;;;;;;13.73;50.00;99320.25;4988136;28;6839;-74
2022/04/23 02:28:50;;;;;;;;;;;;;;;13.75;50.74;99318.56;4987219;28;6824;-74
2022/04/23 02:31:16;;;;;;;;;;;;;;;13.74;49.89;99319.41;4985870;28;6896;-74
2022/04/23 02:33:44;;;;;;;;;;;;;;;13.72;50.62;99313.38;4985577;28;7518;-74
2022/04/23 02:36:11;;;;;;;;;;;;;;;13.71;50.65;99314.22;4985093;28;6812;-74
2022/04/23 02:38:41;;;;;;;;;;;;;;;13.69;49.78;99317.59;4984069;28;7035;-74
2022/04/23 02:41:11;;;;;;;;;;;;;;;13.67;49.89;99314.97;5000752;28;6903;-74
2022/04/23 02:43:41;;;;;;;;;;;;;;;13.64;49.66;99314.06;5000899;28;6819;-74
2022/04/23 02:46:07;;;;;;;;;;;;;;;13.60;50.45;99319.16;4985774;28;6892;-74
2022/04/23 02:48:33;;;;;;;;;;;;;;;13.57;50.30;99324.25;5001429;28;6804;-74
2022/04/23 02:51:00;;;;;;;;;;;;;;;13.55;50.00;99327.63;4999793;28;7007;-74
2022/04/23 02:53:26;;;;;;;;;;;;;;;13.52;50.77;99330.13;5001273;28;6994;-74
2022/04/23 02:55:56;;;;;;;;;;;;;;;13.45;51.00;99322.31;4980326;28;6823;-74
2022/04/23 02:58:27;;;;;;;;;;;;;;;13.42;50.40;99321.34;4983574;28;7126;-74
2022/04/23 03:00:53;;;;;;;;;;;;;;;13.38;50.28;99323.00;4983213;28;6836;-74
2022/04/23 03:03:19;;;;;;;;;;;;;;;13.32;50.59;99318.59;4981801;28;8220;-74
2022/04/23 03:05:45;;;;;;;;;;;;;;;13.28;50.57;99321.06;4961940;28;6892;-74
2022/04/23 03:08:12;;;;;;;;;;;;;;;13.23;50.74;99318.41;5001394;28;6795;-74
2022/04/23 03:10:39;;;;;;;;;;;;;;;13.17;51.21;99321.72;4981772;28;6804;-74
2022/04/23 03:13:07;;;;;;;;;;;;;;;13.13;50.69;99316.50;4983704;28;7185;-74
2022/04/23 03:15:37;;;;;;;;;;;;;;;13.12;51.14;99322.47;4979914;28;6879;-74
2022/04/23 03:18:08;;;;;;;;;;;;;;;13.08;50.84;99312.94;4986773;28;6835;-74
2022/04/23 03:20:34;;;;;;;;;;;;;;;13.04;51.09;99317.19;4979495;28;7051;-74
2022/04/23 03:23:00;;;;;;;;;;;;;;;13.02;51.90;99321.41;4983692;28;7024;-74
2022/04/23 03:25:26;;;;;;;;;;;;;;;12.98;51.70;99310.19;4997110;28;6828;-74
2022/04/23 03:27:52;;;;;;;;;;;;;;;12.96;51.17;99313.59;4986318;28;6962;-74
2022/04/23 03:30:20;;;;;;;;;;;;;;;12.92;51.63;99318.66;4982244;28;6823;-74
2022/04/23 03:32:47;;;;;;;;;;;;;;;12.91;51.97;99318.63;4982850;28;6977;-74
2022/04/23 03:35:14;;;;;;;;;;;;;;;12.88;51.39;99305.69;4984447;28;7562;-74
2022/04/23 03:37:40;;;;;;;;;;;;;;;12.86;51.68;99312.50;4985387;28;6816;-74
2022/04/23 03:40:08;;;;;;;;;;;;;;;12.84;51.72;99311.63;4982901;28;7359;-74
2022/04/23 03:42:35;;;;;;;;;;;;;;;12.82;52.40;99305.56;4983487;28;6987;-74
2022/04/23 03:45:05;;;;;;;;;;;;;;;12.80;52.53;99302.13;4983119;28;6803;-74
2022/04/23 03:47:32;;;;;;;;;;;;;;;12.78;52.65;99304.66;4984109;28;6827;-74
2022/04/23 03:50:05;;;;;;;;;;;;;;;12.76;52.81;99307.16;4979224;28;6808;-74
2022/04/23 03:52:30;;;;;;;;;;;;;;;12.76;52.27;99306.31;4956692;28;6816;-74
2022/04/23 03:54:56;;;;;;;;;;;;;;;12.75;52.67;99312.31;4981359;28;6927;-74
2022/04/23 03:57:21;;;;;;;;;;;;;;;12.73;52.32;99301.97;4984519;28;6886;-74
2022/04/23 03:59:47;;;;;;;;;;;;;;;12.72;52.87;99300.25;4982553;28;7220;-74
2022/04/23 04:02:13;;;;;;;;;;;;;;;12.71;52.86;99307.91;4979971;28;6871;-74
2022/04/23 04:04:38;;;;;;;;;;;;;;;12.68;52.97;99305.28;4983179;28;7907;-74
2022/04/23 04:07:05;;;;;;;;;;;;;;;12.68;52.81;99305.28;4983305;28;6874;-74
2022/04/23 04:09:31;;;;;;;;;;;;;;;12.65;53.04;99306.06;4984982;28;7106;-74
2022/04/23 04:12:03;;;;;;;;;;;;;;;12.61;52.71;99305.13;4982814;28;6804;-74
2022/04/23 04:14:30;;;;;;;;;;;;;;;12.60;53.33;99305.09;4967253;28;7037;-74
2022/04/23 04:17:00;;;;;;;;;;;;;;;12.57;52.89;99305.03;4983803;28;7908;-74
2022/04/23 04:19:32;;;;;;;;;;;;;;;12.54;52.91;99305.81;4984202;28;7108;-74
2022/04/23 04:21:58;;;;;;;;;;;;;;;12.52;53.01;99307.50;4962141;28;8739;-75
2022/04/23 04:24:28;;;;;;;;;;;;;;;12.50;52.91;99304.88;4981912;28;6799;-75
2022/04/23 04:26:54;;;;;;;;;;;;;;;12.49;53.00;99307.44;4968803;28;8334;-75
2022/04/23 04:29:21;;;;;;;;;;;;;;;12.48;53.40;99314.25;4999975;28;6800;-75
2022/04/23 04:31:47;;;;;;;;;;;;;;;12.48;53.82;99309.13;4959986;28;6868;-75
2022/04/23 04:34:28;;;;;;;;;;;;;;;12.49;53.84;99304.88;4961455;28;7435;-75
2022/04/23 04:37:09;;;;;;;;;;;;;;;12.50;53.34;99301.47;4976324;28;6908;-74
2022/04/23 04:39:42;;;;;;;;;;;;;;;12.52;53.45;99296.38;4963027;28;8839;-74
2022/04/23 04:42:10;;;;;;;;;;;;;;;12.52;53.75;99302.34;4979556;28;6804;-74
2022/04/23 04:44:37;;;;;;;;;;;;;;;12.52;53.78;99294.66;4966194;28;6989;-73
2022/04/23 04:47:04;;;;;;;;;;;;;;;12.54;53.87;99300.69;4972042;28;6799;-73
2022/04/23 04:49:31;;;;;;;;;;;;;;;12.55;54.09;99304.13;4979887;28;6812;-73
2022/04/23 04:51:56;;;;;;;;;;;;;;;12.57;53.83;99300.78;4984253;28;6958;-73
2022/04/23 04:54:23;;;;;;;;;;;;;;;12.59;53.65;99298.22;4981149;28;6983;-73
2022/04/23 04:56:51;;;;;;;;;;;;;;;12.60;53.95;99302.53;4978301;28;6800;-74
2022/04/23 04:59:18;;;;;;;;;;;;;;;12.62;53.68;99298.31;4981432;28;6807;-74
2022/04/23 05:01:44;;;;;;;;;;;;;;;12.62;53.68;99303.44;4981277;28;6886;-74
2022/04/23 05:04:10;;;;;;;;;;;;;;;12.66;54.16;99294.09;4981658;28;6967;-74
2022/04/23 05:06:36;;;;;;;;;;;;;;;12.70;53.69;99298.47;4978981;28;7209;-74
2022/04/23 05:09:02;;;;;;;;;;;;;;;12.76;54.21;99306.31;4995004;28;6912;-74
2022/04/23 05:11:28;;;;;;;;;;;;;;;12.81;54.50;99309.00;4980794;28;6792;-75
2022/04/23 05:13:54;;;;;;;;;;;;;;;12.87;54.20;99299.69;4997586;28;6978;-75
2022/04/23 05:16:19;;;;;;;;;;;;;;;12.93;53.82;99304.09;4982083;28;6800;-75
2022/04/23 05:18:45;;;;;;;;;;;;;;;12.99;54.02;99305.94;4949917;28;8707;-75
2022/04/23 05:21:11;;;;;;;;;;;;;;;13.04;53.78;99291.47;4967799;28;6959;-75
2022/04/23 05:23:37;;;;;;;;;;;;;;;13.09;53.54;99294.97;4984580;28;6792;-75
2022/04/23 05:26:03;;;;;;;;;;;;;;;13.15;53.39;99292.53;4962850;28;6788;-75
2022/04/23 05:28:34;;;;;;;;;;;;;;;13.22;53.61;99295.22;4976797;28;6800;-75
2022/04/23 05:31:00;;;;;;;;;;;;;;;13.29;53.75;99282.53;4983825;28;6812;-75
2022/04/23 05:33:26;;;;;;;;;;;;;;;13.37;53.78;99289.50;4976731;28;6819;-75
2022/04/23 05:35:52;;;;;;;;;;;;;;;13.43;53.14;99285.34;4977600;28;6803;-74
2022/04/23 05:38:22;;;;;;;;;;;;;;;13.50;52.85;99285.47;4987235;28;6775;-74
2022/04/23 05:40:48;;;;;;;;;;;;;;;13.56;53.35;99295.91;4986591;28;7068;-74
2022/04/23 05:43:15;;;;;;;;;;;;;;;13.64;53.71;99298.59;4982110;28;7421;-74
2022/04/23 05:45:41;;;;;;;;;;;;;;;13.70;53.13;99293.56;4987566;28;7186;-75
2022/04/23 05:48:07;;;;;;;;;;;;;;;13.77;52.87;99294.53;4987083;28;6963;-75
2022/04/23 05:50:33;;;;;;;;;;;;;;;13.82;52.66;99290.34;4971018;28;7246;-75
2022/04/23 05:52:58;;;;;;;;;;;;;;;13.93;52.95;99299.13;4984960;28;8610;-75
2022/04/23 05:55:24;;;;;;;;;;;;;;;14.01;52.49;99296.66;4972334;28;7665;-75
2022/04/23 05:57:50;;;;;;;;;;;;;;;14.08;52.93;99295.03;4980743;28;6891;-75
2022/04/23 06:00:16;;;;;;;;;;;;;;;14.16;52.16;99298.59;4984600;28;6799;-75
2022/04/23 06:02:42;;;;;;;;;;;;;;;14.25;51.96;99287.59;4985512;28;7014;-75
2022/04/23 06:05:08;;;;;;;;;;;;;;;14.33;52.71;99295.44;4977455;28;6894;-75
2022/04/23 06:07:34;;;;;;;;;;;;;;;14.41;52.47;99293.84;4971474;28;7178;-75
2022/04/23 06:10:00;;;;;;;;;;;;;;;14.49;52.34;99292.25;4967220;28;6973;-75
2022/04/23 06:12:26;;;;;;;;;;;;;;;14.57;51.47;99295.78;4980464;28;6791;-75
2022/04/23 06:14:52;;;;;;;;;;;;;;;14.67;51.84;99301.06;4983845;28;6783;-75
2022/04/23 06:17:24;;;;;;;;;;;;;;;14.75;52.25;99304.63;4970073;28;7263;-75
2022/04/23 06:19:50;;;;;;;;;;;;;;;14.85;51.52;99298.75;4997532;28;6962;-75
2022/04/23 06:22:16;;;;;;;;;;;;;;;14.95;51.60;99307.50;4987193;28;6788;-75
2022/04/23 06:24:42;;;;;;;;;;;;;;;15.04;51.49;99293.81;4983546;28;7073;-75
2022/04/23 06:27:08;;;;;;;;;;;;;;;15.11;51.14;99298.22;4985179;28;6791;-75
2022/04/23 06:29:36;;;;;;;;;;;;;;;15.19;50.18;99297.44;4986394;28;6855;-75
2022/04/23 06:32:03;;;;;;;;;;;;;;;15.26;50.89;99302.69;5003079;28;8040;-75
2022/04/23 06:34:29;;;;;;;;;;;;;;;15.33;51.15;99303.63;4985673;28;6984;-75
2022/04/23 06:36:54;;;;;;;;;;;;;;;15.39;50.69;99298.53;4959237;28;6942;-75
2022/04/23 06:39:20;;;;;;;;;;;;;;;15.46;50.51;99296.03;5000811;28;6791;-75
2022/04/23 06:41:46;;;;;;;;;;;;;;;15.54;50.65;99296.94;5001479;28;6788;-74
2022/04/23 06:44:11;;;;;;;;;;;;;;;15.59;49.81;99289.25;4982295;28;6911;-75
2022/04/23 06:46:37;;;;;;;;;;;;;;;15.63;49.98;99291.03;4985861;28;6969;-75
2022/04/23 06:49:05;;;;;;;;;;;;;;;15.69;49.63;99291.06;4986406;28;6796;-75
2022/04/23 06:51:37;;;;;;;;;;;;;;;15.75;49.65;99287.69;4985829;28;8278;-74
2022/04/23 06:54:04;;;;;;;;;;;;;;;15.84;49.46;99285.19;4999227;28;6912;-74
2022/04/23 06:56:31;;;;;;;;;;;;;;;15.90;49.60;99274.91;4985343;28;6883;-74
2022/04/23 06:58:57;;;;;;;;;;;;;;;16.00;49.63;99280.16;4982824;28;7206;-74
2022/04/23 07:01:23;;;;;;;;;;;;;;;16.08;49.41;99281.09;4982295;28;9086;-74
2022/04/23 07:03:48;;;;;;;;;;;;;;;16.17;49.57;99273.41;4988018;28;6808;-74
2022/04/23 07:06:16;;;;;;;;;;;;;;;16.27;49.11;99276.91;4987033;28;6926;-74
2022/04/23 07:08:44;;;;;;;;;;;;;;;16.37;49.10;99281.31;4986101;28;8206;-74
2022/04/23 07:11:11;;;;;;;;;;;;;;;16.47;48.87;99269.28;4999517;28;7245;-74
2022/04/23 07:13:38;;;;;;;;;;;;;;;16.57;48.18;99277.97;4985192;28;7165;-74
2022/04/23 07:16:05;;;;;;;;;;;;;;;16.65;48.15;99271.09;4966092;28;6985;-74
2022/04/23 07:18:32;;;;;;;;;;;;;;;16.70;48.24;99280.63;4980879;28;7094;-74
2022/04/23 07:20:58;;;;;;;;;;;;;;;16.75;47.90;99282.38;4963419;28;6968;-74
2022/04/23 07:26:08;;;;;;;;;;;;;;;16.92;47.57;99279.00;4985415;28;6899;-74
2022/04/23 07:28:35;;;;;;;;;;;;;;;17.00;47.22;99274.75;4967394;28;7003;-74
2022/04/23 07:31:01;;;;;;;;;;;;;;;17.06;46.87;99277.34;4965060;28;7864;-74
2022/04/23 07:38:56;;;;;;;;;;;;;;;17.23;46.49;99267.91;4994397;28;7145;-74
2022/04/23 07:41:21;;;;;;;;;;;;;;;17.29;46.35;99263.63;4981949;28;6902;-74
2022/04/23 07:43:47;;;;;;;;;;;;;;;17.37;45.67;99268.81;4983041;28;6776;-74
2022/04/23 07:46:12;;;;;;;;;;;;;;;17.44;45.82;99264.50;4984162;28;7174;-74
2022/04/23 07:48:38;;;;;;;;;;;;;;;17.51;45.73;99271.41;4984898;28;6815;-74
2022/04/23 07:51:04;;;;;;;;;;;;;;;17.60;45.67;99273.16;4967078;28;6999;-74
2022/04/23 07:53:30;;;;;;;;;;;;;;;17.70;45.95;99274.03;4984779;28;6910;-74
2022/04/23 07:55:56;;;;;;;;;;;;;;;17.79;45.42;99261.09;4985492;28;6815;-74
2022/04/23 07:58:22;;;;;;;;;;;;;;;17.88;45.11;99271.47;4965646;28;6784;-74
2022/04/23 08:00:48;;;;;;;;;;;;;;;17.97;45.33;99264.53;4999929;28;7171;-74
2022/04/23 08:03:14;;;;;;;;;;;;;;;18.07;45.04;99274.06;4986725;28;7282;-74
2022/04/23 08:05:40;;;;;;;;;;;;;;;18.16;45.16;99262.81;4983560;28;6804;-74
2022/04/23 08:08:06;;;;;;;;;;;;;;;18.27;44.78;99270.59;5000402;28;6784;-74
2022/04/23 08:10:32;;;;;;;;;;;;;;;18.36;44.74;99264.50;4986395;28;6800;-74
2022/04/23 08:12:57;;;;;;;;;;;;;;;18.42;44.09;99275.72;4997164;28;6954;-74
2022/04/23 08:15:26;;;;;;;;;;;;;;;18.52;44.14;99276.59;4982479;28;6779;-74
2022/04/23 08:17:54;;;;;;;;;;;;;;;18.59;43.51;99264.47;4982188;28;7197;-74
2022/04/23 08:20:20;;;;;;;;;;;;;;;18.68;43.58;99272.22;4981828;28;7082;-74
2022/04/23 08:22:46;;;;;;;;;;;;;;;18.81;43.33;99274.75;4982213;28;7258;-74
2022/04/23 08:25:12;;;;;;;;;;;;;;;18.92;43.64;99265.19;4965303;28;6863;-74
2022/04/23 08:27:53;;;;;;;;;;;;;;;19.06;43.58;99269.50;4980223;28;6868;-74
2022/04/23 08:30:35;;;;;;;;;;;;;;;19.18;43.33;99279.81;4968186;28;7046;-74
2022/04/23 08:33:06;;;;;;;;;;;;;;;19.32;43.31;99278.91;4984670;28;6895;-74
2022/04/23 08:35:34;;;;;;;;;;;;;;;19.45;42.90;99271.88;4981689;28;7852;-74
2022/04/23 08:38:00;;;;;;;;;;;;;;;19.59;42.43;99269.16;4960385;28;6828;-74
2022/04/23 08:40:53;;;;;;;;;;;;;;;19.72;41.86;99278.63;4982918;28;6787;-74
2022/04/23 08:43:19;;;;;;;;;;;;;;;19.89;41.45;99275.00;4980974;28;7162;-74
2022/04/23 08:45:45;;;;;;;;;;;;;;;20.04;41.69;99272.31;4997698;28;6894;-75
2022/04/23 08:48:12;;;;;;;;;;;;;;;20.22;41.51;99270.44;4984569;28;6911;-74
2022/04/23 08:50:39;;;;;;;;;;;;;;;20.39;41.38;99272.84;4964963;28;6808;-74
2022/04/23 08:53:15;;;;;;;;;;;;;;;20.64;41.25;99264.78;4962186;28;7079;-75
2022/04/23 08:55:45;;;;;;;;;;;;;;;20.87;40.49;99272.34;4966733;28;6890;-75
2022/04/23 08:58:14;;;;;;;;;;;;;;;20.99;40.38;99270.47;4980996;28;6879;-75
2022/04/23 09:00:41;;;;;;;;;;;;;;;21.03;39.91;99266.94;4966525;28;7032;-74
2022/04/23 09:03:13;;;;;;;;;;;;;;;21.02;39.93;99273.91;4984202;28;6962;-75
2022/04/23 09:05:39;;;;;;;;;;;;;;;20.99;40.00;99268.72;4987418;28;6816;-75
2022/04/23 09:08:07;;;;;;;;;;;;;;;20.97;39.60;99272.25;4971553;28;6792;-75
2022/04/23 09:10:48;;;;;;;;;;;;;;;20.94;39.34;99266.16;4988777;28;6990;-75
2022/04/23 09:13:30;;;;;;;;;;;;;;;20.95;39.90;99259.22;4987605;28;6816;-74
2022/04/23 09:24:15;;;;;;;;;;;;;;;22.57;38.83;99246.25;4985462;28;6967;-74
2022/04/23 09:26:42;;;;;;;;;;;;;;;23.14;38.19;99247.66;4985959;28;6795;-75
2022/04/23 09:29:18;;;;;;;;;;;;;;;23.77;37.90;99252.31;4989325;28;7190;-75
2022/04/23 09:31:44;;;;;;;;;;;;;;;24.46;37.17;99259.31;4969982;28;6971;-75
2022/04/23 09:34:20;;;;;;;;;;;;;;;25.07;35.47;99241.88;4949578;28;6971;-75
2022/04/23 09:36:55;;;;;;;;;;;;;;;25.58;35.54;99242.91;4988299;28;6827;-75
2022/04/23 09:39:31;;;;;;;;;;;;;;;26.18;34.88;99239.19;4989200;28;6800;-75
2022/04/23 09:42:17;;;;;;;;;;;;;;;26.67;33.68;99236.59;4986760;28;6800;-75
2022/04/23 09:44:45;;;;;;;;;;;;;;;26.51;32.76;99231.06;4987430;28;6812;-75
2022/04/23 09:47:30;;;;;;;;;;;;;;;25.93;32.85;99230.41;4981668;28;7047;-75
2022/04/23 09:49:56;;;;;;;;;;;;;;;25.76;33.37;99230.97;4987283;28;6804;-75
2022/04/23 09:52:29;;;;;;;;;;;;;;;26.13;33.20;99231.47;4983167;28;6903;-75
2022/04/23 09:55:02;;;;;;;;;;;;;;;26.71;32.86;99217.16;4983811;28;7872;-75
2022/04/23 09:57:30;;;;;;;;;;;;;;;27.19;32.09;99235.53;4971756;28;7050;-75
2022/04/23 09:59:56;;;;;;;;;;;;;;;27.47;31.32;99229.16;4988192;28;6976;-75
2022/04/23 10:02:23;;;;;;;;;;;;;;;27.63;31.06;99216.25;4984977;28;6943;-74
2022/04/23 10:04:54;;;;;;;;;;;;;;;27.77;29.76;99220.94;5002760;28;6815;-74
2022/04/23 10:07:24;;;;;;;;;;;;;;;27.89;30.00;99230.09;4985686;28;6903;-74
2022/04/23 10:09:53;;;;;;;;;;;;;;;28.19;29.61;99218.31;4984847;28;6903;-75
2022/04/23 10:12:20;;;;;;;;;;;;;;;28.31;28.85;99215.16;4984988;28;6808;-74
2022/04/23 10:14:54;;;;;;;;;;;;;;;28.42;29.42;99220.78;4984031;28;7061;-75
2022/04/23 10:17:20;;;;;;;;;;;;;;;28.45;28.54;99238.25;4986302;28;6839;-75
2022/04/23 10:19:48;;;;;;;;;;;;;;;28.07;28.70;99223.16;4987505;28;6807;-75
2022/04/23 10:22:34;;;;;;;;;;;;;;;27.57;29.15;99230.53;4968183;28;6836;-75
2022/04/23 10:25:08;;;;;;;;;;;;;;;27.02;29.41;99223.03;4984974;28;6851;-75
2022/04/23 10:27:35;;;;;;;;;;;;;;;26.92;29.85;99212.03;4988222;28;6804;-75
2022/04/23 10:30:06;;;;;;;;;;;;;;;27.15;29.80;99218.16;4986022;28;6815;-75
2022/04/23 10:32:40;;;;;;;;;;;;;;;27.57;29.16;99221.75;4987371;28;7205;-75
2022/04/23 10:35:18;;;;;;;;;;;;;;;27.84;28.95;99222.38;4984863;28;6975;-75
2022/04/23 10:37:49;;;;;;;;;;;;;;;28.11;28.45;99213.34;4986220;28;6804;-74
2022/04/23 10:40:18;;;;;;;;;;;;;;;28.37;28.15;99220.13;5002220;28;6907;-75
2022/04/23 10:43:15;;;;;;;;;;;;;;;28.44;27.69;99204.91;4984890;28;6816;-75
2022/04/23 10:45:41;;;;;;;;;;;;;;;28.48;27.48;99200.34;4985933;28;9944;-75
2022/04/23 10:48:19;;;;;;;;;;;;;;;28.28;27.54;99204.75;4984835;28;7065;-75
2022/04/23 10:51:16;;;;;;;;;;;;;;;28.18;28.16;99213.94;4986122;28;6991;-75
2022/04/23 10:53:41;;;;;;;;;;;;;;;28.41;28.12;99195.38;5000236;28;6994;-75
2022/04/23 10:56:14;;;;;;;;;;;;;;;28.76;27.39;99214.88;5000757;28;7570;-75
2022/04/23 10:58:41;;;;;;;;;;;;;;;28.98;26.34;99204.22;4984827;28;7084;-75
2022/04/23 11:01:29;;;;;;;;;;;;;;;29.04;27.11;99201.31;4986080;28;6803;-74
2022/04/23 11:03:54;;;;;;;;;;;;;;;29.09;26.55;99201.91;5000188;28;7545;-74
2022/04/23 11:12:22;;;;;;;;;;;;;;;29.51;26.17;99192.00;4981728;28;6820;-74
2022/04/23 11:14:53;;;;;;;;;;;;;;;29.62;25.56;99190.59;5000459;28;6792;-74
2022/04/23 11:17:37;;;;;;;;;;;;;;;29.76;25.74;99189.91;4982688;28;6800;-74
2022/04/23 11:20:04;;;;;;;;;;;;;;;29.76;26.25;99184.63;4983453;28;6796;-74
2022/04/23 11:22:29;;;;;;;;;;;;;;;29.84;26.14;99184.22;4984751;28;6887;-74
2022/04/23 11:24:57;;;;;;;;;;;;;;;29.94;25.82;99182.84;4984186;28;6866;-74
2022/04/23 11:27:37;;;;;;;;;;;;;;;30.10;24.85;99180.28;4983979;28;6962;-74
2022/04/23 11:30:07;;;;;;;;;;;;;;;30.07;24.83;99183.06;4982889;28;6968;-74
2022/04/23 11:32:36;;;;;;;;;;;;;;;30.06;25.04;99176.94;4983521;28;8677;-74
2022/04/23 11:35:07;;;;;;;;;;;;;;;30.23;25.24;99172.56;4968569;28;7147;-74
2022/04/23 11:37:36;;;;;;;;;;;;;;;30.58;25.23;99172.41;4985192;28;6792;-74
2022/04/23 11:40:13;;;;;;;;;;;;;;;30.89;25.24;99164.59;4965091;28;6827;-74
2022/04/23 11:42:43;;;;;;;;;;;;;;;31.17;24.56;99173.59;4984403;28;6832;-75
2022/04/23 11:45:11;;;;;;;;;;;;;;;31.38;24.57;99173.34;4983200;28;6796;-75
2022/04/23 11:47:37;;;;;;;;;;;;;;;31.57;23.96;99165.16;4998356;28;6811;-75
2022/04/23 11:50:15;;;;;;;;;;;;;;;31.75;24.17;99165.84;4981821;28;6816;-74
2022/04/23 11:52:43;;;;;;;;;;;;;;;31.95;23.49;99164.66;4985508;28;6808;-74
2022/04/23 11:55:25;;;;;;;;;;;;;;;32.11;23.63;99164.59;4984756;28;6884;-74
2022/04/23 11:58:06;;;;;;;;;;;;;;;32.23;23.56;99154.19;4980497;28;6796;-75
2022/04/23 12:00:33;;;;;;;;;;;;;;;32.27;22.92;99153.88;4982070;28;6811;-75
2022/04/23 12:03:01;;;;;;;;;;;;;;;32.21;23.42;99153.41;4987058;28;7465;-74
2022/04/23 12:05:28;;;;;;;;;;;;;;;31.72;22.87;99164.25;4984375;28;7232;-74
2022/04/23 12:07:55;;;;;;;;;;;;;;;31.26;23.03;99159.88;4985758;28;8205;-74
2022/04/23 12:10:31;;;;;;;;;;;;;;;30.84;23.53;99154.28;4983357;28;6887;-74
2022/04/23 12:13:05;;;;;;;;;;;;;;;30.49;24.01;99159.69;4978839;28;7244;-74
2022/04/23 12:15:32;;;;;;;;;;;;;;;30.39;24.58;99156.72;4981241;28;7192;-75
2022/04/23 12:17:58;;;;;;;;;;;;;;;30.31;24.85;99154.47;4981215;28;6804;-75
2022/04/23 12:20:27;;;;;;;;;;;;;;;30.32;24.57;99156.16;4983342;28;6875;-75
2022/04/23 12:23:02;;;;;;;;;;;;;;;30.33;24.41;99147.34;4982225;28;6891;-75
2022/04/23 12:25:33;;;;;;;;;;;;;;;30.25;24.83;99161.88;5000498;28;6985;-76
2022/04/23 12:42:30;;;;;;;;;;;;;;;28.67;25.48;99150.28;4985134;28;8400;-76
2022/04/23 12:44:56;;;;;;;;;;;;;;;28.95;25.27;99134.03;4988534;28;6872;-76
2022/04/23 12:47:35;;;;;;;;;;;;;;;29.45;25.72;99139.53;4986404;28;6784;-76
2022/04/23 12:50:07;;;;;;;;;;;;;;;29.96;25.43;99132.56;4986671;28;6828;-76
2022/04/23 12:52:46;;;;;;;;;;;;;;;30.35;23.98;99134.88;4987644;28;6976;-76
2022/04/23 12:55:29;;;;;;;;;;;;;;;30.48;23.77;99140.34;4984985;28;7377;-76
2022/04/23 12:58:07;;;;;;;;;;;;;;;30.29;23.85;99129.94;4990707;28;7086;-76
2022/04/23 13:00:36;;;;;;;;;;;;;;;30.12;23.63;99128.22;4985191;28;6884;-76
2022/04/23 13:06:01;;;;;;;;;;;;;;;30.02;23.99;99129.59;4986296;28;7344;-76
2022/04/23 13:14:03;;;;;;;;;;;;;;;29.76;24.13;99124.78;4963383;28;7208;-75
2022/04/23 13:16:31;;;;;;;;;;;;;;;29.73;24.10;99114.34;4985376;28;7058;-75
2022/04/23 13:19:03;;;;;;;;;;;;;;;29.73;24.35;99117.00;4983468;28;7208;-75
2022/04/23 13:21:33;;;;;;;;;;;;;;;29.68;24.72;99113.75;4979533;28;6843;-75
2022/04/23 13:24:00;;;;;;;;;;;;;;;29.54;24.42;99117.09;4985780;28;6883;-75
2022/04/23 13:26:28;;;;;;;;;;;;;;;29.34;24.43;99111.03;4986837;28;7326;-75
2022/04/23 13:28:54;;;;;;;;;;;;;;;29.20;24.77;99110.84;4987907;28;7360;-75
2022/04/23 13:31:20;;;;;;;;;;;;;;;29.18;24.57;99110.09;4987249;28;7599;-75
2022/04/23 13:33:47;;;;;;;;;;;;;;;29.18;25.03;99112.72;4985643;28;7222;-75
2022/04/23 13:36:12;;;;;;;;;;;;;;;29.13;25.22;99105.03;4986132;28;7023;-75
2022/04/23 13:38:39;;;;;;;;;;;;;;;29.18;25.00;99107.44;4978410;28;6876;-74
2022/04/23 13:41:13;;;;;;;;;;;;;;;29.23;24.73;99097.53;4959153;28;6984;-74
2022/04/23 13:43:41;;;;;;;;;;;;;;;29.08;24.97;99107.06;4988340;28;6819;-74
2022/04/23 13:46:09;;;;;;;;;;;;;;;28.80;24.72;99108.38;4986880;28;6856;-75
2022/04/23 13:48:38;;;;;;;;;;;;;;;28.48;24.98;99113.41;4984417;28;7171;-75
2022/04/23 13:51:04;;;;;;;;;;;;;;;28.25;25.31;99104.78;4988931;28;6807;-75